Time;durP1;ratioP1;P1;durP2;ratioP2;P2;SDS_P1;SDS_P2;PMS_P1;PMS_P2;Temp;Humidity;BMP_temperature;BMP_pressure;BME280_temperature;BME280_humidity;BME280_pressure;Samples;Min_cycle;Max_cycle;Signal;HPM_P1;HPM_P2
2022/08/15 00:00:25;;;;;;;12.32;6.90;;;23.50;93.70;;;;;;5013407;28;20240;-75
2022/08/15 00:02:57;;;;;;;12.68;6.68;;;23.60;93.70;;;;;;5014337;28;20200;-75
2022/08/15 00:05:32;;;;;;;11.27;6.38;;;23.60;93.70;;;;;;5015697;28;20191;-76
2022/08/15 00:08:07;;;;;;;11.13;6.82;;;23.60;93.90;;;;;;5015404;28;20223;-76
2022/08/15 00:10:58;;;;;;;10.25;6.78;;;23.50;93.80;;;;;;5016736;28;20737;-75
2022/08/15 00:13:52;;;;;;;12.70;6.80;;;23.50;93.90;;;;;;5009998;28;20215;-76
2022/08/15 00:16:32;;;;;;;13.32;7.38;;;23.50;93.80;;;;;;5018621;28;20196;-75
2022/08/15 00:19:02;;;;;;;10.70;6.25;;;23.50;93.80;;;;;;5014396;28;20770;-74
2022/08/15 00:21:33;;;;;;;11.45;7.07;;;23.50;93.90;;;;;;5018166;28;20611;-75
2022/08/15 00:24:02;;;;;;;12.15;6.50;;;23.50;93.90;;;;;;5018492;28;20621;-75
2022/08/15 00:26:34;;;;;;;9.55;5.82;;;23.50;93.80;;;;;;5014704;28;20198;-75
2022/08/15 00:29:27;;;;;;;9.35;6.25;;;23.50;93.70;;;;;;5019877;28;20208;-75
2022/08/15 00:32:08;;;;;;;10.80;6.07;;;23.50;93.60;;;;;;5015033;28;20220;-75
2022/08/15 00:34:56;;;;;;;10.88;6.30;;;23.50;93.50;;;;;;5011967;28;20200;-76
2022/08/15 00:37:25;;;;;;;10.02;6.22;;;23.50;93.40;;;;;;5017196;28;20557;-75
2022/08/15 00:39:54;;;;;;;12.00;6.07;;;23.50;93.40;;;;;;5020583;28;20223;-75
2022/08/15 00:42:25;;;;;;;10.68;6.03;;;23.50;93.50;;;;;;5018402;28;20187;-75
2022/08/15 00:44:58;;;;;;;10.52;6.82;;;23.50;93.40;;;;;;5012913;28;20390;-76
2022/08/15 00:47:42;;;;;;;11.38;7.30;;;23.50;93.30;;;;;;5012657;28;20211;-76
2022/08/15 00:50:13;;;;;;;12.13;5.93;;;23.50;93.30;;;;;;5019746;28;20207;-74
2022/08/15 00:53:06;;;;;;;11.18;6.53;;;23.50;93.20;;;;;;5017639;28;20196;-73
2022/08/15 00:55:39;;;;;;;12.30;5.78;;;23.50;93.10;;;;;;5016335;28;20209;-74
2022/08/15 00:58:09;;;;;;;11.00;6.05;;;23.50;93.10;;;;;;5015851;28;20196;-76
2022/08/15 01:00:59;;;;;;;13.20;7.03;;;23.50;93.00;;;;;;5013632;28;20228;-74
2022/08/15 01:03:31;;;;;;;14.13;7.60;;;23.60;93.00;;;;;;5012786;28;20650;-74
2022/08/15 01:06:22;;;;;;;11.82;6.28;;;23.60;92.90;;;;;;5009432;28;20187;-74
2022/08/15 01:09:02;;;;;;;12.07;6.20;;;23.60;92.90;;;;;;5016930;28;20270;-74
2022/08/15 01:11:43;;;;;;;10.68;6.38;;;23.60;93.00;;;;;;5017238;28;20187;-73
2022/08/15 01:14:11;;;;;;;11.82;6.35;;;23.60;93.00;;;;;;5016825;28;20826;-74
2022/08/15 01:17:03;;;;;;;12.05;6.80;;;23.50;92.90;;;;;;5016003;28;20207;-75
2022/08/15 01:19:40;;;;;;;10.70;6.40;;;23.60;93.00;;;;;;5014612;28;20211;-74
2022/08/15 01:22:31;;;;;;;10.90;7.05;;;23.60;93.00;;;;;;5018236;28;20230;-75
2022/08/15 01:25:05;;;;;;;11.98;6.38;;;23.60;93.00;;;;;;5013190;28;20193;-73
2022/08/15 01:27:58;;;;;;;12.18;6.80;;;23.60;93.00;;;;;;5018323;28;20195;-74
2022/08/15 01:30:31;;;;;;;11.52;6.78;;;23.60;93.00;;;;;;5014991;28;20199;-74
2022/08/15 01:33:21;;;;;;;12.27;6.78;;;23.60;93.20;;;;;;5014438;28;20196;-74
2022/08/15 01:35:51;;;;;;;9.55;6.32;;;23.50;93.10;;;;;;5020871;28;20195;-74
2022/08/15 01:38:27;;;;;;;11.43;6.60;;;23.50;93.00;;;;;;5016453;28;20188;-73
2022/08/15 01:41:24;;;;;;;9.00;6.35;;;23.50;93.00;;;;;;5010973;28;20219;-73
2022/08/15 01:44:13;;;;;;;12.30;7.05;;;23.50;93.00;;;;;;5015464;28;20700;-74
2022/08/15 01:47:06;;;;;;;10.52;6.53;;;23.50;93.10;;;;;;5012824;28;20206;-74
2022/08/15 01:49:46;;;;;;;10.98;6.47;;;23.60;93.00;;;;;;5015990;28;20215;-74
2022/08/15 01:52:35;;;;;;;10.07;6.53;;;23.50;93.00;;;;;;5014020;28;20199;-73
2022/08/15 01:55:27;;;;;;;14.38;7.35;;;23.50;93.10;;;;;;5001521;28;20195;-74
2022/08/15 01:58:03;;;;;;;13.10;6.78;;;23.50;93.00;;;;;;5011515;28;20217;-73
2022/08/15 02:00:31;;;;;;;9.38;6.47;;;23.60;93.00;;;;;;5012515;28;20851;-73
2022/08/15 02:03:02;;;;;;;11.88;6.97;;;23.50;92.90;;;;;;5012241;28;20260;-73
2022/08/15 02:05:30;;;;;;;15.80;7.15;;;23.60;92.90;;;;;;5008038;28;20238;-74
2022/08/15 02:07:59;;;;;;;11.45;7.28;;;23.60;93.00;;;;;;5012691;28;20242;-73
2022/08/15 02:10:48;;;;;;;10.57;7.00;;;23.60;93.00;;;;;;5006563;28;20200;-75
2022/08/15 02:13:20;;;;;;;11.88;7.47;;;23.60;93.00;;;;;;5013193;28;20227;-74
2022/08/15 02:15:53;;;;;;;14.10;7.78;;;23.60;93.00;;;;;;5011732;28;20195;-73
2022/08/15 02:18:22;;;;;;;12.65;6.82;;;23.60;93.00;;;;;;5015690;28;20204;-75
2022/08/15 02:20:51;;;;;;;10.75;7.00;;;23.60;93.00;;;;;;5008901;28;20218;-74
2022/08/15 02:23:20;;;;;;;12.00;7.03;;;23.60;93.00;;;;;;5008992;28;20230;-76
2022/08/15 02:25:51;;;;;;;12.32;7.60;;;23.60;93.00;;;;;;5013099;28;20191;-74
2022/08/15 02:28:24;;;;;;;15.80;7.70;;;23.60;93.10;;;;;;5012694;28;20196;-73
2022/08/15 02:31:10;;;;;;;12.90;8.00;;;23.60;93.10;;;;;;5012177;28;20235;-75
2022/08/15 02:33:41;;;;;;;12.45;7.30;;;23.50;93.10;;;;;;5015989;28;20198;-73
2022/08/15 02:36:16;;;;;;;15.27;7.93;;;23.60;93.10;;;;;;5013751;28;20188;-74
2022/08/15 02:39:00;;;;;;;13.73;7.68;;;23.60;93.10;;;;;;5015683;28;20281;-73
2022/08/15 02:41:32;;;;;;;15.23;8.52;;;23.60;93.00;;;;;;5012546;28;20767;-73
2022/08/15 02:44:13;;;;;;;13.38;8.30;;;23.60;93.10;;;;;;5008981;28;20219;-74
2022/08/15 02:46:51;;;;;;;13.80;8.38;;;23.60;93.00;;;;;;5013852;28;20196;-74
2022/08/15 02:49:33;;;;;;;13.40;7.47;;;23.60;93.00;;;;;;5015186;28;20195;-74
2022/08/15 02:52:15;;;;;;;14.05;8.50;;;23.60;93.00;;;;;;5015873;28;20201;-73
2022/08/15 02:54:49;;;;;;;12.93;7.93;;;23.60;93.00;;;;;;5012974;28;20220;-73
2022/08/15 02:57:27;;;;;;;17.08;8.57;;;23.60;93.00;;;;;;5014552;28;20223;-74
2022/08/15 02:59:57;;;;;;;13.77;8.90;;;23.60;93.10;;;;;;5014757;28;20230;-73
2022/08/15 03:02:27;;;;;;;14.27;8.20;;;23.60;93.10;;;;;;5014787;28;21026;-74
2022/08/15 03:04:59;;;;;;;10.60;7.63;;;23.60;93.10;;;;;;5012481;28;20204;-74
2022/08/15 03:07:28;;;;;;;13.10;7.85;;;23.60;93.10;;;;;;5015638;28;20720;-73
2022/08/15 03:09:58;;;;;;;13.10;8.13;;;23.60;93.20;;;;;;5012318;28;20223;-73
2022/08/15 03:12:27;;;;;;;13.52;8.65;;;23.60;93.30;;;;;;5010869;28;20194;-74
2022/08/15 03:15:06;;;;;;;14.35;9.55;;;23.60;93.50;;;;;;5010488;28;20195;-76
2022/08/15 03:17:38;;;;;;;13.90;8.80;;;23.60;93.80;;;;;;5010574;28;20250;-74
2022/08/15 03:20:10;;;;;;;13.65;8.77;;;23.50;94.00;;;;;;5009247;28;20624;-73
2022/08/15 03:22:43;;;;;;;15.70;9.68;;;23.50;94.20;;;;;;5018065;28;20195;-73
2022/08/15 03:25:15;;;;;;;14.45;9.38;;;23.50;94.20;;;;;;5023094;28;20188;-76
2022/08/15 03:27:45;;;;;;;13.25;8.68;;;23.50;94.30;;;;;;5017147;28;20223;-73
2022/08/15 03:30:16;;;;;;;13.85;8.20;;;23.40;94.30;;;;;;5019212;28;20230;-74
2022/08/15 03:32:50;;;;;;;15.80;8.60;;;23.40;94.30;;;;;;5010159;28;20220;-73
2022/08/15 03:35:22;;;;;;;15.13;8.82;;;23.50;94.40;;;;;;5016822;28;20188;-74
2022/08/15 03:37:57;;;;;;;14.70;9.15;;;23.50;94.40;;;;;;5013797;28;20253;-74
2022/08/15 03:40:29;;;;;;;12.63;8.43;;;23.50;94.40;;;;;;5020631;28;20633;-73
2022/08/15 03:43:01;;;;;;;14.45;8.23;;;23.50;94.40;;;;;;5019265;28;20200;-73
2022/08/15 03:45:45;;;;;;;15.07;8.77;;;23.50;94.40;;;;;;5018216;28;20195;-74
2022/08/15 03:48:17;;;;;;;16.20;8.68;;;23.50;94.40;;;;;;5007614;28;20187;-73
2022/08/15 03:50:52;;;;;;;13.63;7.90;;;23.50;94.30;;;;;;5022053;28;20783;-74
2022/08/15 03:53:28;;;;;;;14.25;8.27;;;23.50;94.30;;;;;;5009822;28;20857;-74
2022/08/15 03:55:58;;;;;;;14.63;8.93;;;23.50;94.20;;;;;;5016995;28;20204;-73
2022/08/15 03:58:29;;;;;;;14.20;7.88;;;23.50;94.30;;;;;;5014099;28;20192;-72
2022/08/15 04:01:07;;;;;;;13.27;8.35;;;23.50;94.30;;;;;;5006390;28;20703;-73
2022/08/15 04:03:41;;;;;;;12.55;8.35;;;23.50;94.20;;;;;;5018483;28;20215;-73
2022/08/15 04:06:12;;;;;;;16.13;8.90;;;23.60;94.50;;;;;;5017668;28;20195;-72
2022/08/15 04:08:47;;;;;;;13.98;7.88;;;23.60;94.10;;;;;;5007891;28;20250;-74
2022/08/15 04:11:36;;;;;;;15.45;8.27;;;23.60;94.00;;;;;;5015408;28;20196;-74
2022/08/15 04:14:07;;;;;;;16.98;9.65;;;23.60;94.00;;;;;;5013179;28;20201;-74
2022/08/15 04:16:59;;;;;;;12.57;8.10;;;23.60;94.10;;;;;;5016383;28;20192;-72
2022/08/15 04:19:42;;;;;;;13.88;8.70;;;23.60;94.10;;;;;;5016035;28;20203;-73
2022/08/15 04:22:18;;;;;;;13.13;8.73;;;23.60;94.00;;;;;;5021714;28;20317;-73
2022/08/15 04:24:59;;;;;;;15.40;8.43;;;23.60;94.10;;;;;;5007149;28;20660;-72
2022/08/15 04:27:28;;;;;;;14.48;9.10;;;23.60;94.20;;;;;;5017913;28;20602;-73
2022/08/15 04:29:58;;;;;;;16.85;9.43;;;23.60;94.30;;;;;;5013630;28;22814;-73
2022/08/15 04:32:29;;;;;;;13.65;9.43;;;23.60;94.40;;;;;;5016920;28;20230;-73
2022/08/15 04:35:18;;;;;;;16.23;9.63;;;23.60;94.90;;;;;;5015215;28;20203;-72
2022/08/15 04:37:48;;;;;;;15.30;9.35;;;23.50;94.60;;;;;;5015998;28;20596;-74
2022/08/15 04:40:17;;;;;;;17.58;9.80;;;23.50;94.60;;;;;;5018111;28;20198;-73
2022/08/15 04:43:06;;;;;;;18.98;9.75;;;23.50;94.80;;;;;;5020243;28;20313;-73
2022/08/15 04:45:36;;;;;;;16.38;9.80;;;23.50;94.80;;;;;;5016404;28;20199;-73
2022/08/15 04:48:08;;;;;;;15.60;9.18;;;23.50;94.90;;;;;;5020130;28;20219;-73
2022/08/15 04:50:50;;;;;;;18.27;9.40;;;23.50;94.90;;;;;;5012436;28;20218;-75
2022/08/15 04:53:21;;;;;;;14.40;9.80;;;23.50;95.20;;;;;;5019174;28;20195;-73
2022/08/15 04:56:01;;;;;;;18.05;9.98;;;23.50;95.30;;;;;;5018889;28;20195;-72
2022/08/15 04:58:32;;;;;;;21.38;10.07;;;23.50;95.30;;;;;;5027371;28;20184;-73
2022/08/15 05:01:20;;;;;;;17.48;10.27;;;23.50;95.30;;;;;;4998401;28;20590;-73
2022/08/15 05:03:53;;;;;;;17.60;10.43;;;23.40;95.40;;;;;;5020105;28;20195;-73
2022/08/15 05:06:25;;;;;;;19.23;11.02;;;23.50;95.40;;;;;;5013851;28;20703;-72
2022/08/15 05:09:00;;;;;;;15.27;9.95;;;23.50;95.60;;;;;;5017488;28;20192;-73
2022/08/15 05:11:30;;;;;;;14.50;10.00;;;23.40;95.50;;;;;;5013120;28;20201;-74
2022/08/15 05:14:19;;;;;;;14.98;9.55;;;23.40;95.60;;;;;;5014017;28;20258;-72
2022/08/15 05:17:05;;;;;;;17.92;10.88;;;23.40;95.50;;;;;;5019007;28;20198;-72
2022/08/15 05:19:39;;;;;;;15.80;10.23;;;23.40;95.50;;;;;;5015279;28;20494;-72
2022/08/15 05:22:08;;;;;;;17.50;10.52;;;23.40;95.50;;;;;;5016627;28;20215;-72
2022/08/15 05:24:37;;;;;;;18.33;11.13;;;23.40;95.70;;;;;;5012965;28;20196;-72
2022/08/15 05:27:07;;;;;;;18.48;10.68;;;23.40;95.80;;;;;;5020169;28;20203;-72
2022/08/15 05:29:38;;;;;;;17.00;10.27;;;23.40;95.80;;;;;;5015966;28;20189;-73
2022/08/15 05:32:09;;;;;;;16.38;10.80;;;23.40;95.90;;;;;;5011124;28;20219;-73
2022/08/15 05:34:48;;;;;;;17.25;11.07;;;23.40;96.00;;;;;;5013615;28;20191;-74
2022/08/15 05:37:18;;;;;;;18.33;11.48;;;23.40;96.10;;;;;;5016150;28;20275;-73
2022/08/15 05:39:49;;;;;;;23.17;12.80;;;23.30;96.30;;;;;;5018657;28;20183;-75
2022/08/15 05:42:31;;;;;;;20.38;12.55;;;23.30;96.30;;;;;;5011112;28;20780;-73
2022/08/15 05:45:08;;;;;;;16.08;10.85;;;23.30;96.20;;;;;;5015181;28;20198;-75
2022/08/15 05:47:40;;;;;;;21.27;12.13;;;23.40;96.20;;;;;;5020474;28;20253;-74
2022/08/15 05:50:31;;;;;;;17.88;11.52;;;23.40;96.20;;;;;;5012320;28;20283;-74
2022/08/15 05:53:08;;;;;;;19.52;12.43;;;23.40;96.20;;;;;;5019916;28;20207;-75
2022/08/15 05:55:47;;;;;;;21.85;12.95;;;23.40;96.30;;;;;;5017177;28;20223;-74
2022/08/15 05:58:35;;;;;;;19.35;11.52;;;23.30;96.30;;;;;;5017904;28;20187;-74
2022/08/15 06:01:17;;;;;;;17.83;11.27;;;23.30;96.30;;;;;;5018170;28;20686;-75
2022/08/15 06:03:54;;;;;;;20.65;11.13;;;23.30;96.50;;;;;;5023815;28;20219;-75
2022/08/15 06:06:30;;;;;;;21.30;10.95;;;23.30;96.40;;;;;;5022573;28;20199;-75
2022/08/15 06:09:34;;;;;;;20.55;12.25;;;23.30;96.70;;;;;;5007918;28;20765;-76
2022/08/15 06:12:15;;;;;;;19.42;12.15;;;23.40;96.50;;;;;;5018631;28;20724;-76
2022/08/15 06:14:57;;;;;;;21.17;12.45;;;23.30;96.60;;;;;;5010862;28;20283;-78
2022/08/15 06:17:34;;;;;;;20.40;12.88;;;23.30;96.90;;;;;;5017160;28;20196;-78
2022/08/15 06:20:08;;;;;;;21.83;12.85;;;23.20;97.10;;;;;;5014037;28;20192;-76
2022/08/15 06:23:06;;;;;;;22.48;12.68;;;23.20;97.10;;;;;;5014410;28;20223;-76
2022/08/15 06:25:43;;;;;;;24.40;13.77;;;23.20;97.60;;;;;;5018041;28;20191;-76
2022/08/15 06:28:36;;;;;;;22.15;12.82;;;23.20;97.40;;;;;;5020632;28;20195;-76
2022/08/15 06:31:27;;;;;;;21.27;13.18;;;23.20;97.70;;;;;;5011996;28;20257;-76
2022/08/15 06:34:18;;;;;;;26.05;13.70;;;23.20;97.80;;;;;;5021926;28;20271;-75
2022/08/15 06:37:15;;;;;;;22.35;13.07;;;23.20;97.90;;;;;;5017509;28;20204;-79
2022/08/15 06:39:52;;;;;;;19.45;13.07;;;23.20;98.10;;;;;;5019873;28;20275;-76
2022/08/15 06:42:32;;;;;;;19.15;12.18;;;23.20;98.40;;;;;;5018104;28;20318;-77
2022/08/15 06:45:04;;;;;;;19.65;12.70;;;23.10;98.40;;;;;;5014448;28;20250;-76
2022/08/15 06:47:34;;;;;;;20.98;12.75;;;23.20;98.50;;;;;;5018815;28;20323;-75
2022/08/15 06:50:10;;;;;;;22.40;12.60;;;23.10;98.40;;;;;;5006978;28;20273;-77
2022/08/15 06:52:51;;;;;;;19.45;12.13;;;23.20;98.40;;;;;;5014845;28;20246;-75
2022/08/15 06:55:36;;;;;;;18.80;11.63;;;23.20;98.40;;;;;;5019286;28;20273;-75
2022/08/15 06:58:12;;;;;;;21.17;13.23;;;23.30;98.50;;;;;;5012672;28;20583;-76
2022/08/15 07:01:09;;;;;;;22.63;14.02;;;23.30;98.40;;;;;;5018116;28;20505;-75
2022/08/15 07:03:47;;;;;;;20.20;13.63;;;23.40;98.80;;;;;;5018352;28;20269;-76
2022/08/15 07:06:22;;;;;;;21.35;12.75;;;23.40;98.80;;;;;;5020909;28;20732;-76
2022/08/15 07:08:58;;;;;;;20.85;12.48;;;23.40;98.80;;;;;;5021874;28;20271;-78
2022/08/15 07:11:37;;;;;;;21.48;12.82;;;23.40;98.70;;;;;;5020546;28;20203;-76
2022/08/15 07:14:28;;;;;;;22.13;12.68;;;23.40;98.60;;;;;;5019037;28;20196;-76
2022/08/15 07:17:06;;;;;;;21.73;12.93;;;23.40;98.60;;;;;;5020571;28;20290;-75
2022/08/15 07:19:38;;;;;;;19.85;12.60;;;23.40;98.70;;;;;;5019472;28;20191;-75
2022/08/15 07:22:23;;;;;;;20.00;11.55;;;23.40;98.80;;;;;;5020619;28;20196;-75
2022/08/15 07:25:09;;;;;;;20.30;11.98;;;23.40;98.60;;;;;;5023394;28;20195;-76
2022/08/15 07:27:40;;;;;;;18.58;11.48;;;23.40;98.60;;;;;;5021106;28;20645;-75
2022/08/15 07:30:18;;;;;;;16.25;10.05;;;23.50;98.60;;;;;;5024453;28;20222;-74
2022/08/15 07:32:58;;;;;;;17.60;10.40;;;23.50;98.50;;;;;;5021163;28;20564;-75
2022/08/15 07:35:29;;;;;;;16.60;10.38;;;23.50;98.50;;;;;;5024854;28;20207;-76
2022/08/15 07:38:01;;;;;;;19.63;12.63;;;23.60;98.40;;;;;;5025595;28;20199;-75
2022/08/15 07:40:51;;;;;;;19.98;11.52;;;23.60;98.30;;;;;;5021195;28;20200;-76
2022/08/15 07:43:28;;;;;;;15.60;9.75;;;23.70;98.20;;;;;;5019250;28;20214;-76
2022/08/15 07:46:08;;;;;;;15.15;8.93;;;23.70;98.50;;;;;;5023567;28;20191;-76
2022/08/15 07:49:01;;;;;;;13.38;7.95;;;23.80;98.10;;;;;;5024490;28;20286;-75
2022/08/15 07:51:40;;;;;;;14.32;8.57;;;23.90;98.00;;;;;;5016342;28;20573;-75
2022/08/15 07:54:26;;;;;;;15.70;9.20;;;23.90;98.00;;;;;;5025868;28;20200;-75
2022/08/15 07:57:06;;;;;;;14.70;9.10;;;24.00;98.10;;;;;;5024427;28;20590;-77
2022/08/15 07:59:40;;;;;;;13.75;9.20;;;24.10;98.10;;;;;;5019762;28;20278;-75
2022/08/15 08:02:34;;;;;;;11.77;7.15;;;24.10;98.10;;;;;;5016210;28;20195;-76
2022/08/15 08:05:05;;;;;;;11.35;6.75;;;24.20;98.20;;;;;;5021775;28;20191;-76
2022/08/15 08:07:40;;;;;;;10.45;6.57;;;24.20;98.40;;;;;;5024437;28;20206;-75
2022/08/15 08:10:26;;;;;;;9.43;5.45;;;24.20;98.10;;;;;;5018097;28;20744;-76
2022/08/15 08:13:16;;;;;;;11.20;5.97;;;24.30;97.50;;;;;;5024945;28;20601;-76
2022/08/15 08:16:07;;;;;;;9.48;5.78;;;24.40;97.20;;;;;;5022299;28;20192;-77
2022/08/15 08:18:49;;;;;;;10.32;6.63;;;24.50;97.10;;;;;;5019607;28;20206;-76
2022/08/15 08:21:22;;;;;;;12.98;7.47;;;24.50;97.30;;;;;;5013467;28;20286;-75
2022/08/15 08:24:03;;;;;;;15.52;7.43;;;24.60;97.30;;;;;;5025185;28;20246;-76
2022/08/15 08:26:41;;;;;;;12.63;7.32;;;24.70;97.60;;;;;;5023812;28;20205;-76
2022/08/15 08:29:20;;;;;;;12.82;7.57;;;24.80;97.50;;;;;;5024458;28;20211;-76
2022/08/15 08:32:02;;;;;;;10.07;6.95;;;24.90;97.10;;;;;;5018723;28;20216;-75
2022/08/15 08:34:57;;;;;;;12.20;6.88;;;25.00;96.60;;;;;;5017505;28;20199;-75
2022/08/15 08:37:32;;;;;;;10.13;7.07;;;25.10;96.80;;;;;;5024164;28;20199;-75
2022/08/15 08:43:00;;;;;;;12.07;7.50;;;25.20;96.50;;;;;;5013656;28;20669;-78
2022/08/15 08:45:43;;;;;;;10.15;6.05;;;25.30;96.30;;;;;;5023475;28;20768;-77
2022/08/15 08:48:44;;;;;;;11.18;6.53;;;25.30;95.60;;;;;;5018454;28;20198;-75
2022/08/15 08:51:23;;;;;;;9.98;6.45;;;25.30;95.30;;;;;;5012039;28;20203;-75
2022/08/15 08:54:04;;;;;;;10.80;7.10;;;25.30;94.80;;;;;;5022839;28;20706;-76
2022/08/15 08:56:40;;;;;;;10.85;7.10;;;25.30;94.40;;;;;;5019203;28;20222;-76
2022/08/15 08:59:18;;;;;;;10.98;7.38;;;25.40;94.50;;;;;;5016689;28;20748;-76
2022/08/15 09:01:51;;;;;;;15.10;8.38;;;25.40;94.50;;;;;;5022420;28;20533;-77
2022/08/15 09:04:25;;;;;;;12.40;7.60;;;25.40;94.60;;;;;;5011353;28;20235;-75
2022/08/15 09:06:55;;;;;;;12.35;7.78;;;25.40;94.40;;;;;;5011307;28;20282;-75
2022/08/15 09:09:31;;;;;;;15.02;8.70;;;25.40;94.30;;;;;;5015356;28;20283;-76
2022/08/15 09:12:04;;;;;;;15.10;8.63;;;25.40;94.10;;;;;;5027709;28;20233;-75
2022/08/15 09:14:41;;;;;;;13.82;9.13;;;25.40;93.90;;;;;;5018170;28;20214;-76
2022/08/15 09:17:34;;;;;;;19.20;10.30;;;25.50;94.10;;;;;;5014093;28;20196;-76
2022/08/15 09:20:11;;;;;;;13.88;9.30;;;25.50;94.20;;;;;;5009441;28;20196;-74
2022/08/15 09:22:49;;;;;;;15.20;9.48;;;25.60;94.10;;;;;;5019434;28;20272;-75
2022/08/15 09:25:23;;;;;;;15.23;9.95;;;25.60;94.20;;;;;;5015921;28;20980;-76
2022/08/15 09:28:05;;;;;;;17.17;9.60;;;25.70;94.00;;;;;;5015818;28;20283;-75
2022/08/15 09:30:55;;;;;;;14.75;9.05;;;25.70;93.90;;;;;;5013019;28;20196;-75
2022/08/15 09:33:49;;;;;;;14.43;8.50;;;25.80;93.90;;;;;;5017569;28;20206;-74
2022/08/15 09:36:45;;;;;;;12.02;8.00;;;25.70;93.60;;;;;;5005033;28;20206;-75
2022/08/15 09:39:35;;;;;;;11.25;7.93;;;25.80;93.50;;;;;;5021655;28;20701;-74
2022/08/15 09:42:22;;;;;;;12.65;7.82;;;25.90;93.40;;;;;;5012592;28;20283;-77
2022/08/15 09:45:36;;;;;;;12.45;7.93;;;26.00;93.10;;;;;;5021918;28;20218;-76
2022/08/15 09:48:41;;;;;;;11.95;7.63;;;26.10;92.80;;;;;;5007392;28;20194;-75
2022/08/15 09:51:26;;;;;;;11.63;7.18;;;26.10;92.60;;;;;;5008396;28;20199;-76
2022/08/15 09:54:07;;;;;;;14.18;8.55;;;26.20;92.20;;;;;;5015864;28;20615;-75
2022/08/15 09:57:20;;;;;;;12.48;9.27;;;26.20;92.20;;;;;;5014810;28;20196;-75
2022/08/15 09:59:52;;;;;;;59.00;35.90;;;26.30;91.80;;;;;;5015040;28;20795;-76
2022/08/15 10:02:27;;;;;;;108.35;41.55;;;26.30;91.20;;;;;;5022585;28;20214;-76
2022/08/15 10:05:22;;;;;;;189.40;83.22;;;26.30;91.10;;;;;;5016766;28;20234;-75
2022/08/15 10:07:53;;;;;;;243.77;92.40;;;26.30;91.20;;;;;;5021353;28;20196;-75
2022/08/15 10:10:46;;;;;;;41.55;16.50;;;26.40;91.40;;;;;;5010674;28;20184;-75
2022/08/15 10:13:28;;;;;;;85.50;51.58;;;26.40;91.20;;;;;;5021134;28;20228;-76
2022/08/15 10:15:58;;;;;;;59.67;35.85;;;26.50;91.00;;;;;;5021956;28;20204;-76
2022/08/15 10:19:02;;;;;;;98.32;46.95;;;26.60;90.80;;;;;;5019596;28;20187;-75
2022/08/15 10:21:36;;;;;;;13.35;9.50;;;26.70;90.90;;;;;;5019081;28;20283;-76
2022/08/15 10:24:25;;;;;;;9.45;6.50;;;26.80;90.70;;;;;;5020264;28;20635;-75
2022/08/15 10:27:23;;;;;;;9.77;5.63;;;26.90;90.40;;;;;;5019456;28;20714;-76
2022/08/15 10:30:11;;;;;;;8.73;5.80;;;27.00;90.20;;;;;;5021562;28;20660;-75
2022/08/15 10:33:01;;;;;;;8.55;5.05;;;27.10;89.30;;;;;;4973233;28;21385;-75
2022/08/15 10:35:45;;;;;;;10.60;5.25;;;27.20;88.50;;;;;;4985104;28;20272;-76
2022/08/15 10:38:23;;;;;;;9.32;4.28;;;27.20;86.70;;;;;;4977478;28;20231;-75
2022/08/15 10:41:14;;;;;;;8.82;4.32;;;27.20;86.00;;;;;;4971744;28;20197;-76
2022/08/15 10:43:55;;;;;;;8.13;4.40;;;27.20;85.40;;;;;;4979718;28;20225;-75
2022/08/15 10:46:38;;;;;;;8.77;4.13;;;27.30;84.70;;;;;;4984254;28;20201;-75
2022/08/15 10:49:23;;;;;;;6.50;4.07;;;27.40;84.60;;;;;;4973944;28;20189;-75
2022/08/15 10:52:29;;;;;;;8.52;4.35;;;27.30;82.30;;;;;;4984033;28;20189;-76
2022/08/15 10:55:28;;;;;;;6.45;4.18;;;27.30;81.90;;;;;;4981920;28;20193;-75
2022/08/15 10:58:20;;;;;;;7.20;4.90;;;27.40;82.80;;;;;;4968282;28;20779;-75
2022/08/15 11:01:06;;;;;;;10.23;4.57;;;27.60;82.00;;;;;;4975594;28;20631;-76
2022/08/15 11:03:46;;;;;;;8.68;4.80;;;27.60;82.20;;;;;;4978629;28;20554;-76
2022/08/15 11:06:40;;;;;;;7.28;4.60;;;27.70;82.40;;;;;;4968203;28;20553;-75
2022/08/15 11:09:17;;;;;;;7.22;4.57;;;27.70;82.60;;;;;;4980647;28;20332;-78
2022/08/15 11:11:51;;;;;;;8.07;4.70;;;27.80;82.30;;;;;;4976197;28;20201;-76
2022/08/15 11:14:27;;;;;;;7.43;3.92;;;27.90;81.60;;;;;;4974794;28;20204;-75
2022/08/15 11:17:01;;;;;;;6.88;4.13;;;27.90;80.90;;;;;;4981131;28;20228;-76
2022/08/15 11:19:38;;;;;;;6.25;4.10;;;28.00;80.20;;;;;;4979895;28;20188;-75
2022/08/15 11:22:32;;;;;;;5.22;4.00;;;28.00;80.40;;;;;;4981267;28;20248;-75
2022/08/15 11:25:05;;;;;;;5.78;3.58;;;28.10;79.90;;;;;;4968060;28;20690;-75
2022/08/15 11:27:37;;;;;;;5.72;3.55;;;28.20;78.20;;;;;;4968072;28;20197;-79
2022/08/15 11:30:08;;;;;;;6.88;4.50;;;28.30;78.50;;;;;;4979705;28;20572;-79
2022/08/15 11:32:52;;;;;;;9.07;4.38;;;28.30;78.40;;;;;;4969430;28;20218;-80
2022/08/15 11:35:27;;;;;;;6.80;3.97;;;28.40;78.60;;;;;;4972770;28;20197;-78
2022/08/15 11:37:59;;;;;;;7.50;4.53;;;28.40;76.60;;;;;;4976300;28;20194;-77
2022/08/15 11:40:42;;;;;;;9.32;4.45;;;28.50;76.50;;;;;;4975732;28;20196;-80
2022/08/15 11:43:16;;;;;;;5.75;3.90;;;28.50;76.50;;;;;;4966897;28;20292;-78
2022/08/15 11:45:49;;;;;;;6.00;3.50;;;28.60;75.20;;;;;;4970938;28;20220;-79
2022/08/15 11:48:24;;;;;;;7.95;3.75;;;28.60;75.20;;;;;;4984247;28;20211;-78
2022/08/15 11:51:09;;;;;;;8.55;3.55;;;28.70;75.10;;;;;;4982800;28;20196;-78
2022/08/15 11:53:42;;;;;;;5.88;4.00;;;28.80;74.70;;;;;;4982265;28;20197;-77
2022/08/15 11:56:23;;;;;;;8.00;3.92;;;28.90;74.70;;;;;;4981489;28;20286;-79
2022/08/15 11:59:19;;;;;;;7.78;4.55;;;28.90;74.80;;;;;;4980640;28;20197;-79
2022/08/15 12:02:08;;;;;;;8.80;3.40;;;29.00;75.00;;;;;;4981144;28;20705;-79
2022/08/15 12:04:41;;;;;;;5.97;3.72;;;29.10;73.80;;;;;;4979017;28;20192;-80
2022/08/15 12:07:33;;;;;;;6.13;3.85;;;29.10;73.80;;;;;;4981550;28;20208;-80
2022/08/15 12:10:06;;;;;;;5.20;3.63;;;29.20;73.50;;;;;;4944115;28;20639;-81
2022/08/15 12:12:55;;;;;;;8.48;4.70;;;29.30;73.40;;;;;;4976115;28;20213;-80
2022/08/15 12:15:36;;;;;;;7.85;4.20;;;29.30;71.80;;;;;;4983199;28;20193;-80
2022/08/15 12:18:15;;;;;;;6.75;4.20;;;29.40;72.00;;;;;;4980641;28;20313;-79
2022/08/15 12:21:12;;;;;;;5.28;3.95;;;29.50;72.60;;;;;;4974352;28;20208;-80
2022/08/15 12:23:54;;;;;;;6.03;3.90;;;29.50;70.10;;;;;;4986620;28;20204;-78
2022/08/15 12:26:26;;;;;;;8.15;4.00;;;29.50;69.20;;;;;;4983381;28;20224;-80
2022/08/15 12:29:15;;;;;;;6.10;3.72;;;29.50;70.10;;;;;;4974307;28;20196;-78
2022/08/15 12:31:48;;;;;;;5.07;3.20;;;29.60;69.40;;;;;;4976693;28;20355;-77
2022/08/15 12:34:20;;;;;;;8.88;4.47;;;29.60;68.60;;;;;;4980919;28;20204;-77
2022/08/15 12:37:01;;;;;;;5.95;3.45;;;29.70;68.50;;;;;;4980350;28;20197;-76
2022/08/15 12:39:34;;;;;;;10.88;3.85;;;29.70;68.50;;;;;;4979601;28;20565;-77
2022/08/15 12:42:03;;;;;;;5.18;3.33;;;29.70;66.00;;;;;;4975243;28;20272;-78
2022/08/15 12:44:55;;;;;;;6.63;3.97;;;29.70;66.60;;;;;;4976902;28;20283;-76
2022/08/15 12:47:25;;;;;;;6.97;3.58;;;29.70;66.80;;;;;;4973326;28;20601;-78
2022/08/15 12:50:13;;;;;;;7.57;3.58;;;29.80;66.10;;;;;;4972994;28;20337;-77
2022/08/15 12:52:44;;;;;;;6.53;4.18;;;29.80;66.70;;;;;;4977056;28;20229;-78
2022/08/15 12:55:24;;;;;;;7.13;4.15;;;29.80;66.30;;;;;;4981914;28;20639;-80
2022/08/15 12:57:53;;;;;;;6.82;4.03;;;29.80;66.60;;;;;;4981473;28;20197;-79
2022/08/15 13:00:29;;;;;;;7.75;3.75;;;29.80;66.40;;;;;;4981410;28;20684;-77
2022/08/15 13:03:09;;;;;;;8.00;3.95;;;29.90;66.30;;;;;;4979909;28;20848;-79
2022/08/15 13:05:51;;;;;;;6.93;4.53;;;29.90;66.60;;;;;;4980771;28;20223;-80
2022/08/15 13:08:41;;;;;;;7.80;4.68;;;29.90;66.90;;;;;;4973545;28;20205;-77
2022/08/15 13:11:14;;;;;;;8.18;4.07;;;30.00;66.80;;;;;;4975951;28;20194;-80
2022/08/15 13:13:45;;;;;;;6.43;3.90;;;30.00;66.60;;;;;;4980172;28;20749;-78
2022/08/15 13:16:17;;;;;;;6.10;4.30;;;30.10;66.10;;;;;;4982168;28;20251;-81
2022/08/15 13:19:08;;;;;;;6.53;3.85;;;30.20;65.80;;;;;;4977790;28;20198;-78
2022/08/15 13:24:35;;;;;;;10.13;5.63;;;30.30;65.20;;;;;;4978188;28;20189;-78
2022/08/15 13:27:05;;;;;;;7.18;4.57;;;30.30;63.70;;;;;;4974019;28;20843;-80
2022/08/15 13:29:39;;;;;;;7.50;4.35;;;30.30;63.20;;;;;;4983619;28;20189;-79
2022/08/15 13:32:23;;;;;;;7.82;4.35;;;30.40;63.30;;;;;;4985514;28;20339;-79
2022/08/15 13:34:52;;;;;;;6.78;4.68;;;30.50;62.90;;;;;;4976763;28;20287;-82
2022/08/15 13:37:23;;;;;;;8.55;4.65;;;30.50;62.70;;;;;;4973980;28;21121;-80
2022/08/15 13:40:18;;;;;;;7.15;4.55;;;30.60;63.30;;;;;;4973179;28;20201;-79
2022/08/15 13:42:57;;;;;;;8.52;4.10;;;30.70;63.20;;;;;;4973577;28;20197;-78
2022/08/15 13:45:31;;;;;;;6.47;4.38;;;30.70;62.50;;;;;;4984507;28;20232;-77